»·PEaware :: N623JB KCMA-KSNA

N623JB :: KCMA-KSNA

FLIGHT INFORMATION

Flight Status: Arrived
Operator: Privately registered:
United States
More flights under this callsign
Pilot: Jonathan B. (32222)
Aircraft: CIRRUS SR-22
(SR22)
More flights by this aircraft type
Origin: KCMA Camarillo
United States
Destination: KSNA John Wayne-Orange Co
United States
More flights between these airports :: More routes between these airports
Route:
File this flight plan on PilotEdge
Remarks:
Altitude:
(Current/Filed)
5,500ft
Speed:
(Current/Filed)
140kts
Departed: 12-Nov-20 07:57 PM
Arrived: 12-Nov-20 08:35 PM
Distance/Time
Traveled:
6823nm/0:38
Distance/Time
To Go:
Arrived

Flight Plot

Page will automatically refresh every two minutes.


Map Options




Map Legend


Flown Route
Filed Route
Departure Airport
Arrival Airport
Navaid (VOR, NDB)
Fix

Horizontal Profiles

Position Reports

Time Latitude Longitude Heading Altitude Ground
Speed
12-Nov-20 19:41 34.210735 -119.095459 177 70ft 0kts
12-Nov-20 19:42 34.210735 -119.095459 177 70ft 0kts
12-Nov-20 19:43 34.210735 -119.095459 177 70ft 0kts
12-Nov-20 19:44 34.210735 -119.095459 177 70ft 0kts
12-Nov-20 19:45 34.210561 -119.095194 69 70ft 0kts
12-Nov-20 19:46 34.210738 -119.094970 40 71ft 1kts
12-Nov-20 19:47 34.211003 -119.091924 90 73ft 11kts
12-Nov-20 19:48 34.210974 -119.089443 90 77ft 8kts
12-Nov-20 19:49 34.210944 -119.085775 90 79ft 12kts
12-Nov-20 19:50 34.212903 -119.084612 359 78ft 0kts
12-Nov-20 19:51 34.212903 -119.084612 359 78ft 0kts
12-Nov-20 19:52 34.212903 -119.084612 359 78ft 0kts
12-Nov-20 19:53 34.212903 -119.084612 359 78ft 0kts
12-Nov-20 19:54 34.212903 -119.084612 359 78ft 0kts
12-Nov-20 19:56 34.213689 -119.085695 269 77ft 23kts
12-Nov-20 19:57 34.207743 -119.112755 158 910ft 118kts
12-Nov-20 19:58 34.201711 -119.074946 90 2225ft 118kts
12-Nov-20 19:59 34.217050 -119.043313 82 3682ft 111kts
12-Nov-20 20:00 34.218853 -119.005823 84 5038ft 112kts
12-Nov-20 20:01 34.220921 -118.961035 87 5478ft 149kts
12-Nov-20 20:02 34.223283 -118.909553 86 5493ft 156kts
12-Nov-20 20:03 34.226279 -118.857052 86 5498ft 156kts
12-Nov-20 20:04 34.229415 -118.804614 85 5498ft 156kts
12-Nov-20 20:05 34.232470 -118.753720 85 5497ft 144kts
12-Nov-20 20:06 34.235713 -118.706096 87 5503ft 142kts
12-Nov-20 20:07 34.238358 -118.658488 86 5500ft 141kts
12-Nov-20 20:08 34.240927 -118.610962 86 5500ft 141kts
12-Nov-20 20:09 34.225953 -118.575665 168 5493ft 124kts
12-Nov-20 20:10 34.195757 -118.559642 156 5501ft 116kts
12-Nov-20 20:11 34.165752 -118.545428 159 5504ft 116kts
12-Nov-20 20:12 34.134849 -118.530225 159 5513ft 134kts
12-Nov-20 20:12 34.103383 -118.514895 159 5503ft 153kts
12-Nov-20 20:14 34.056913 -118.492256 158 5496ft 154kts
12-Nov-20 20:14 34.023628 -118.476036 158 5499ft 154kts
12-Nov-20 20:16 33.977062 -118.453363 158 5500ft 154kts
12-Nov-20 20:17 33.937131 -118.433956 159 5500ft 155kts
12-Nov-20 20:17 33.905736 -118.414195 125 5499ft 155kts
12-Nov-20 20:19 33.874567 -118.367180 141 5499ft 155kts
12-Nov-20 20:19 33.847440 -118.338842 142 5500ft 155kts
12-Nov-20 20:20 33.815074 -118.304409 137 5499ft 155kts
12-Nov-20 20:21 33.783022 -118.269600 138 5500ft 155kts
12-Nov-20 20:22 33.750826 -118.234798 138 5500ft 155kts
12-Nov-20 20:23 33.730800 -118.190090 107 5499ft 152kts
12-Nov-20 20:24 33.717533 -118.146509 122 5491ft 125kts
12-Nov-20 20:25 33.701617 -118.111905 117 5503ft 115kts
12-Nov-20 20:26 33.687001 -118.078082 117 5503ft 113kts
12-Nov-20 20:27 33.672851 -118.045106 117 5498ft 108kts
12-Nov-20 20:28 33.659852 -118.013369 93 5497ft 104kts
12-Nov-20 20:29 33.654124 -117.978463 113 5069ft 116kts
12-Nov-20 20:30 33.642596 -117.940108 81 3895ft 132kts
12-Nov-20 20:31 33.661627 -117.901686 59 2448ft 138kts
12-Nov-20 20:32 33.689895 -117.876245 30 1370ft 114kts
12-Nov-20 20:33 33.693396 -117.858570 195 789ft 90kts
12-Nov-20 20:34 33.677068 -117.868018 210 54ft 16kts
12-Nov-20 20:35 33.674458 -117.868507 156 57ft 0kts
12-Nov-20 20:36 33.674458 -117.868507 156 57ft 0kts
12-Nov-20 20:37 33.674129 -117.868075 119 59ft 11kts
12-Nov-20 20:38 33.673715 -117.865917 349 53ft 2kts
12-Nov-20 20:39 33.673726 -117.865919 349 53ft 0kts
12-Nov-20 20:40 0.000000 0.000000 0 0ft 0kts
12-Nov-20 20:41 0.000408 0.013975 359 3ft 0kts
12-Nov-20 20:42 0.000408 0.013975 359 3ft 0kts
12-Nov-20 20:43 0.000408 0.013975 359 3ft 0kts

Navigation Log

Ident Type
Flight plan parsing failed, navigation log unavailable